Pagrindinis puslapis
METAR-TAF:

METAR-TAF

Oro uostai :

Džibučio

Džibutis, Džibutis

platuma: 11-33N, ilguma: 043-10E, Aukštis: 49 m

Dabartinis oras

Ataskaita buvo paskelbta 1 valandą ir 39 minutes, ne 04:00 UTC
Vėjas 7 kt iš Šiaurės Rytų
Temperatūra 32°C
Drėgmė 67%
Slėgis 1006 hPa
Matomumas: 8000 m
Mažai debesys ne aukštis 26600 ft
migla

METAR: HDAM 220400Z 04007KT 8000 HZ FEW266 32/25 Q1006

Laikas: 08:39 (05:39 UTC)

Prognozė

Ataskaita buvo paskelbta 6 valandos ir 39 minutes, ne 23:00 UTC
Prognozė galioja nuo 22 metu 00 UTC su 22 metu 24 UTC
Vėjas 10 kt iš Pietų/Pietvakarių
Matomumas: 8000 m
Giedras dangus
migla
Tapsmas
nuo 22 metu 06 UTC su 22 metu 12 UTC
Vėjas 10 kt iš Rytų su gūsio iki 15 kt
Matomumas: 7000 m
Mažai debesys ne aukštis 2300 ft
Mažai debesys ne aukštis 26600 ft
migla
Tapsmas
nuo 22 metu 15 UTC su 22 metu 21 UTC
Vėjas 5 kt nuo kintamojo kryptimis
Matomumas: 9000 m
Mažai debesys ne aukštis 2000 ft
migla

TAF: HDAM 212300Z 2200/2224 21010KT 8000 HZ SKC BECMG 2206/2212 08010G15KT 7000 HZ FEW023 FEW266 BECMG 2215/2221 VRB05KT 9000 HZ FEW020

Orai ataskaitas ir orų prognozės (METAR, TAF).

turimą stotys yra geltonos ir raudonos taškus žemėlapyje.

Perkelti pele per norėdami pamatyti stoties vardą.

Tada spustelėkite, norėdami matyti oro stebėjimo ir prognozės.

Norėdami pakeisti žemėlapį: spustelėkite ant žalios mygtukų su juodo kryžiaus žemyn,; žalią mygtuką su brūkšneliu, jei norite nutolinti; arba žalių rodyklių gretimoms žemėlapius.


METAR-TAF: